Terminal Aerodrome Forecast
Issued by NWS Knoxville/Tri Cities, TN

Home | Current Version | Previous Version | Text Only | Print | Product List | Glossary On
Versions: 1 2 3 4 5 6 7 8 9 10 11 12 13 14 15 16 17 18 19 20 21 22 23 24 25 26 27 28
000
FTUS44 KMRX 220521
TAFTRI
TAF
KTRI 220521Z 2206/2306 11003KT P6SM SCT090 BKN250
     FM220900 00000KT 4SM BR SCT080 BKN250
     FM221300 VRB02KT P6SM SCT035 SCT100
     FM221800 VRB04KT P6SM SCT050 BKN150
     FM230100 00000KT P6SM FEW045 BKN200=

USA.gov is the U.S. government's official web portal to all federal, state and local government web resources and services.